createdAt,value
2018-07-10T00:00:31.481Z,100816.66
2018-07-10T00:03:16.087Z,100819.28
2018-07-10T00:06:04.700Z,100814.20
2018-07-10T00:09:08.026Z,100817.16
2018-07-10T00:11:41.469Z,100819.84
2018-07-10T00:14:14.928Z,100816.09
2018-07-10T00:16:48.311Z,100817.11
2018-07-10T00:19:21.772Z,100833.58
2018-07-10T00:21:55.158Z,100831.56
2018-07-10T00:24:28.588Z,100830.20
2018-07-10T00:27:02.150Z,100830.27
2018-07-10T00:29:35.591Z,100823.01
2018-07-10T00:32:08.982Z,100826.08
2018-07-10T00:34:42.436Z,100818.31
2018-07-10T00:37:15.871Z,100821.45
2018-07-10T00:39:49.347Z,100821.62
2018-07-10T00:42:22.716Z,100822.91
2018-07-10T00:44:56.136Z,100819.81
2018-07-10T00:47:29.580Z,100817.80
2018-07-10T00:50:02.988Z,100817.08
2018-07-10T00:52:36.395Z,100813.33
2018-07-10T00:55:09.848Z,100811.38
2018-07-10T00:57:43.319Z,100807.17
2018-07-10T01:00:26.854Z,100804.67
2018-07-10T01:03:00.623Z,100797.62
2018-07-10T01:05:34.056Z,100798.17
2018-07-10T01:08:07.478Z,100801.23
2018-07-10T01:10:40.962Z,100800.33
2018-07-10T01:13:14.391Z,100794.80
2018-07-10T01:15:47.824Z,100787.08
2018-07-10T01:18:27.914Z,100792.23
2018-07-10T01:21:01.336Z,100787.19
2018-07-10T01:23:35.442Z,100782.95
2018-07-10T01:26:09.823Z,100779.09
2018-07-10T01:28:43.391Z,100782.16
2018-07-10T01:31:16.826Z,100775.79
2018-07-10T01:33:50.339Z,100777.98
2018-07-10T01:36:23.733Z,100769.91
2018-07-10T01:38:57.165Z,100775.66
2018-07-10T01:41:30.615Z,100771.80
2018-07-10T01:44:04.039Z,100767.17
2018-07-10T01:46:37.499Z,100762.06
2018-07-10T01:49:10.943Z,100763.03
2018-07-10T01:51:44.405Z,100762.23
2018-07-10T01:54:17.913Z,100755.14
2018-07-10T01:56:51.351Z,100750.66
2018-07-10T01:59:24.812Z,100756.29
2018-07-10T02:01:58.294Z,100758.13
2018-07-10T02:04:31.735Z,100752.22
2018-07-10T02:07:05.507Z,100750.86
2018-07-10T02:09:38.929Z,100752.32
2018-07-10T02:12:12.422Z,100752.91
2018-07-10T02:14:45.867Z,100750.89
2018-07-10T02:17:19.351Z,100743.28
2018-07-10T02:19:52.772Z,100742.61
2018-07-10T02:22:26.220Z,100737.47
2018-07-10T02:24:59.703Z,100732.78
2018-07-10T02:27:33.152Z,100728.64
2018-07-10T02:30:06.672Z,100727.84
2018-07-10T02:32:40.090Z,100718.91
2018-07-10T02:35:14.086Z,100714.25
2018-07-10T02:37:50.209Z,100713.42
2018-07-10T02:40:23.636Z,100706.68
2018-07-10T02:42:57.071Z,100712.69
2018-07-10T02:45:30.491Z,100701.13
2018-07-10T02:48:03.939Z,100704.59
2018-07-10T02:50:37.358Z,100706.78
2018-07-10T02:53:10.789Z,100701.67
2018-07-10T02:55:45.310Z,100697.50
2018-07-10T02:58:18.781Z,100685.98
2018-07-10T03:00:52.176Z,100689.80
2018-07-10T03:03:25.720Z,100682.95
2018-07-10T03:05:59.139Z,100683.12
2018-07-10T03:08:32.576Z,100679.27
2018-07-10T03:11:06.367Z,100679.34
2018-07-10T03:13:40.655Z,100678.91
2018-07-10T03:16:14.067Z,100668.36
2018-07-10T03:18:47.792Z,100670.58
2018-07-10T03:21:21.223Z,100663.38
2018-07-10T03:23:54.640Z,100662.20
2018-07-10T03:26:28.039Z,100661.95
2018-07-10T03:29:01.461Z,100668.43
2018-07-10T03:31:34.890Z,100664.13
2018-07-10T03:34:08.350Z,100657.67
2018-07-10T03:36:42.059Z,100658.61
2018-07-10T03:39:15.491Z,100658.09
2018-07-10T03:41:48.964Z,100660.66
2018-07-10T03:44:22.434Z,100654.56
2018-07-10T03:46:57.966Z,100651.09
2018-07-10T03:49:31.452Z,100650.64
2018-07-10T03:52:10.000Z,100653.49
2018-07-10T03:54:45.515Z,100654.33
2018-07-10T03:57:18.937Z,100661.59
2018-07-10T03:59:55.864Z,100664.05
2018-07-10T04:02:29.270Z,100664.50
2018-07-10T04:05:03.516Z,100671.73
2018-07-10T04:07:36.930Z,100671.28
2018-07-10T04:10:12.169Z,100680.62
2018-07-10T04:12:47.638Z,100664.78
2018-07-10T04:15:21.099Z,100645.69
2018-07-10T04:17:58.660Z,100608.33
2018-07-10T04:20:40.726Z,100578.48
2018-07-10T04:23:14.154Z,100566.16
2018-07-10T04:25:53.804Z,100572.92
2018-07-10T04:28:31.191Z,100593.50
2018-07-10T04:31:16.391Z,100601.39
2018-07-10T04:33:49.974Z,100596.95
2018-07-10T04:36:23.610Z,100595.66
2018-07-10T04:38:59.077Z,100597.51
2018-07-10T04:41:35.188Z,100594.94
2018-07-10T04:44:11.912Z,100590.97
2018-07-10T04:46:53.227Z,100589.06
2018-07-10T04:49:32.041Z,100583.75
2018-07-10T04:52:21.166Z,100586.17
2018-07-10T04:55:08.813Z,100587.93
2018-07-10T04:57:49.365Z,100594.86
2018-07-10T05:00:22.852Z,100588.77
2018-07-10T05:02:57.526Z,100584.47
2018-07-10T05:05:32.587Z,100583.00
2018-07-10T05:08:06.215Z,100577.92
2018-07-10T05:10:39.674Z,100578.53
2018-07-10T05:13:13.763Z,100572.78
2018-07-10T05:15:52.434Z,100565.67
2018-07-10T05:18:25.912Z,100568.50
2018-07-10T05:21:02.126Z,100571.52
2018-07-10T05:23:35.532Z,100563.23
2018-07-10T05:26:10.897Z,100566.22
2018-07-10T05:28:45.173Z,100563.31
2018-07-10T05:31:20.386Z,100557.79
2018-07-10T05:33:53.851Z,100565.87
2018-07-10T05:36:27.308Z,100572.48
2018-07-10T05:39:07.051Z,100578.05
2018-07-10T05:41:45.152Z,100584.88
2018-07-10T05:44:21.128Z,100581.90
2018-07-10T05:46:58.376Z,100581.73
2018-07-10T05:49:36.977Z,100581.53
2018-07-10T05:52:10.479Z,100577.61
2018-07-10T05:54:45.467Z,100579.25
2018-07-10T05:57:18.930Z,100573.66
2018-07-10T05:59:52.346Z,100568.76
2018-07-10T06:02:25.865Z,100573.68
2018-07-10T06:04:59.279Z,100568.64
2018-07-10T06:07:32.763Z,100578.22
2018-07-10T06:10:06.589Z,100577.00
2018-07-10T06:12:40.113Z,100568.84
2018-07-10T06:15:14.424Z,100562.95
2018-07-10T06:17:48.312Z,100553.51
2018-07-10T06:20:21.740Z,100549.69
2018-07-10T06:22:56.630Z,100549.14
2018-07-10T06:25:33.439Z,100543.42
2018-07-10T06:28:08.826Z,100537.63
2018-07-10T06:30:42.633Z,100541.23
2018-07-10T06:33:24.835Z,100545.09
2018-07-10T06:36:05.642Z,100561.75
2018-07-10T06:38:42.591Z,100550.75
2018-07-10T06:41:16.117Z,100544.80
2018-07-10T06:44:04.472Z,100549.31
2018-07-10T06:46:42.879Z,100543.69
2018-07-10T06:49:35.806Z,100546.13
2018-07-10T06:52:13.685Z,100544.52
2018-07-10T06:54:55.572Z,100542.44
2018-07-10T06:57:33.628Z,100548.27
2018-07-10T07:00:09.360Z,100558.83
2018-07-10T07:02:42.833Z,100561.43
2018-07-10T07:05:16.271Z,100564.41
2018-07-10T07:07:49.805Z,100568.48
2018-07-10T07:10:23.827Z,100562.78
2018-07-10T07:12:57.274Z,100562.75
2018-07-10T07:15:30.755Z,100563.48
2018-07-10T07:18:04.171Z,100567.66
2018-07-10T07:20:37.615Z,100566.33
2018-07-10T07:23:11.041Z,100566.51
2018-07-10T07:25:44.497Z,100565.95
2018-07-10T07:28:18.005Z,100557.80
2018-07-10T07:30:51.443Z,100557.97
2018-07-10T07:33:24.905Z,100560.32
2018-07-10T07:35:58.305Z,100568.69
2018-07-10T07:38:31.740Z,100559.85
2018-07-10T07:41:05.188Z,100560.39
2018-07-10T07:43:38.680Z,100566.08
2018-07-10T07:46:12.172Z,100564.12
2018-07-10T07:48:45.663Z,100565.56
2018-07-10T07:51:19.078Z,100565.07
2018-07-10T07:53:52.594Z,100561.94
2018-07-10T07:56:26.038Z,100562.09
2018-07-10T07:58:59.440Z,100563.26
2018-07-10T08:01:32.901Z,100564.31
2018-07-10T08:04:06.407Z,100562.58
2018-07-10T08:06:39.857Z,100569.65
2018-07-10T08:09:14.267Z,100570.06
2018-07-10T08:11:47.719Z,100570.73
2018-07-10T08:14:21.238Z,100564.18
2018-07-10T08:16:55.086Z,100561.30
2018-07-10T08:19:28.518Z,100565.59
2018-07-10T08:22:01.973Z,100560.70
2018-07-10T08:24:35.469Z,100563.79
2018-07-10T08:27:09.025Z,100562.58
2018-07-10T08:29:42.561Z,100562.38
2018-07-10T08:32:16.028Z,100558.00
2018-07-10T08:34:49.533Z,100553.23
2018-07-10T08:37:23.143Z,100547.85
2018-07-10T08:39:56.654Z,100547.40
2018-07-10T08:42:30.124Z,100546.94
2018-07-10T08:45:04.723Z,100549.47
2018-07-10T08:47:38.953Z,100551.97
2018-07-10T08:50:12.499Z,100544.33
2018-07-10T08:52:45.967Z,100547.92
2018-07-10T08:55:19.468Z,100541.66
2018-07-10T08:57:52.909Z,100544.95
2018-07-10T09:00:26.354Z,100549.00
2018-07-10T09:03:00.198Z,100544.69
2018-07-10T09:05:33.644Z,100548.07
2018-07-10T09:08:07.178Z,100546.78
2018-07-10T09:10:40.907Z,100549.23
2018-07-10T09:13:14.391Z,100548.48
2018-07-10T09:15:47.836Z,100551.44
2018-07-10T09:18:21.284Z,100549.45
2018-07-10T09:20:54.733Z,100555.45
2018-07-10T09:23:28.267Z,100554.06
2018-07-10T09:26:02.023Z,100554.59
2018-07-10T09:28:38.259Z,100552.41
2018-07-10T09:31:11.773Z,100556.27
2018-07-10T09:33:45.340Z,100559.88
2018-07-10T09:36:18.830Z,100549.73
2018-07-10T09:38:52.302Z,100550.31
2018-07-10T09:41:26.248Z,100546.18
2018-07-10T09:43:59.782Z,100545.11
2018-07-10T09:46:33.250Z,100546.28
2018-07-10T09:49:06.776Z,100551.48
2018-07-10T09:51:41.795Z,100555.47
2018-07-10T09:54:15.252Z,100554.64
2018-07-10T09:56:48.646Z,100561.73
2018-07-10T09:59:22.100Z,100565.52
2018-07-10T10:02:00.494Z,100568.89
2018-07-10T10:04:34.663Z,100558.13
2018-07-10T10:07:08.088Z,100561.62
2018-07-10T10:09:41.533Z,100565.28
2018-07-10T10:12:14.949Z,100567.23
2018-07-10T10:14:48.572Z,100561.80
2018-07-10T10:17:23.340Z,100558.02
2018-07-10T10:19:58.415Z,100550.16
2018-07-10T10:22:32.713Z,100557.47
2018-07-10T10:25:06.180Z,100549.61
2018-07-10T10:27:41.798Z,100553.79
2018-07-10T10:30:15.235Z,100551.14
2018-07-10T10:32:48.656Z,100553.14
2018-07-10T10:35:22.109Z,100564.47
2018-07-10T10:37:55.544Z,100559.06
2018-07-10T10:40:30.473Z,100556.58
2018-07-10T10:43:06.964Z,100559.39
2018-07-10T10:45:44.252Z,100577.42
2018-07-10T10:48:18.511Z,100583.56
2018-07-10T10:50:52.478Z,100583.08
2018-07-10T10:53:25.891Z,100585.58
2018-07-10T10:55:59.349Z,100589.72
2018-07-10T10:58:32.751Z,100589.05
2018-07-10T11:01:06.209Z,100581.66
2018-07-10T11:03:39.625Z,100592.45
2018-07-10T11:06:13.102Z,100587.25
2018-07-10T11:08:46.557Z,100594.75
2018-07-10T11:11:20.651Z,100591.52
2018-07-10T11:13:54.228Z,100592.31
2018-07-10T11:16:27.674Z,100590.94
2018-07-10T11:19:07.759Z,100589.99
2018-07-10T11:22:04.263Z,100594.43
2018-07-10T11:24:43.015Z,100589.86
2018-07-10T11:27:24.726Z,100591.98
2018-07-10T11:29:58.173Z,100609.44
2018-07-10T11:32:31.661Z,100612.64
2018-07-10T11:35:05.059Z,100626.05
2018-07-10T11:37:38.634Z,100621.19
2018-07-10T11:40:13.291Z,100617.29
2018-07-10T11:42:46.707Z,100626.31
2018-07-10T11:45:20.132Z,100620.20
2018-07-10T11:47:53.568Z,100623.86
2018-07-10T11:50:27.015Z,100628.22
2018-07-10T11:53:00.451Z,100634.98
2018-07-10T11:55:34.917Z,100635.62
2018-07-10T11:58:08.876Z,100630.95
2018-07-10T12:00:42.324Z,100628.73
2018-07-10T12:03:15.784Z,100622.85
2018-07-10T12:05:49.256Z,100626.74
2018-07-10T12:08:22.704Z,100628.13
2018-07-10T12:11:14.955Z,100626.61
2018-07-10T12:13:48.583Z,100630.13
2018-07-10T12:16:22.079Z,100627.02
2018-07-10T12:18:55.495Z,100622.20
2018-07-10T12:21:28.925Z,100624.18
2018-07-10T12:24:02.331Z,100623.21
2018-07-10T12:26:36.057Z,100634.13
2018-07-10T12:29:09.491Z,100631.19
2018-07-10T12:31:42.948Z,100642.16
2018-07-10T12:34:16.387Z,100648.92
2018-07-10T12:36:49.847Z,100654.68
2018-07-10T12:39:23.287Z,100649.99
2018-07-10T12:41:56.758Z,100651.10
2018-07-10T12:44:30.195Z,100649.77
2018-07-10T12:47:03.695Z,100650.23
2018-07-10T12:49:37.119Z,100650.97
2018-07-10T12:52:10.615Z,100656.91
2018-07-10T12:54:44.042Z,100658.89
2018-07-10T12:57:17.507Z,100663.33
2018-07-10T12:59:51.024Z,100663.47
2018-07-10T13:02:25.397Z,100669.09
2018-07-10T13:04:58.910Z,100676.13
2018-07-10T13:07:33.334Z,100675.53
2018-07-10T13:10:06.783Z,100676.97
2018-07-10T13:12:40.384Z,100668.12
2018-07-10T13:15:14.041Z,100668.12
2018-07-10T13:17:50.147Z,100677.11
2018-07-10T13:20:23.573Z,100684.80
2018-07-10T13:22:57.018Z,100687.97
2018-07-10T13:25:30.420Z,100692.59
2018-07-10T13:28:03.939Z,100694.12
2018-07-10T13:30:37.376Z,100695.59
2018-07-10T13:33:10.852Z,100695.64
2018-07-10T13:35:44.493Z,100687.53
2018-07-10T13:38:21.167Z,100693.02
2018-07-10T13:40:54.631Z,100692.05
2018-07-10T13:43:28.109Z,100699.79
2018-07-10T13:46:01.499Z,100693.68
2018-07-10T13:48:34.931Z,100692.64
2018-07-10T13:51:08.332Z,100688.83
2018-07-10T13:53:42.087Z,100693.47
2018-07-10T13:56:15.567Z,100689.97
2018-07-10T13:58:49.051Z,100690.81
2018-07-10T14:01:22.472Z,100696.30
2018-07-10T14:03:55.925Z,100698.72
2018-07-10T14:06:29.331Z,100702.68
2018-07-10T14:09:02.824Z,100703.66
2018-07-10T14:11:36.239Z,100701.22
2018-07-10T14:14:09.669Z,100693.61
2018-07-10T14:16:43.129Z,100698.93
2018-07-10T14:19:16.578Z,100689.89
2018-07-10T14:21:50.031Z,100688.91
2018-07-10T14:24:23.500Z,100688.91
2018-07-10T14:26:56.940Z,100691.64
2018-07-10T14:29:30.362Z,100688.22
2018-07-10T14:32:03.772Z,100692.19
2018-07-10T14:34:37.216Z,100691.48
2018-07-10T14:37:10.669Z,100694.84
2018-07-10T14:39:44.618Z,100692.49
2018-07-10T14:42:19.145Z,100695.38
2018-07-10T14:44:52.612Z,100693.56
2018-07-10T14:47:26.080Z,100688.89
2018-07-10T14:49:59.527Z,100686.09
2018-07-10T14:52:33.077Z,100686.40
2018-07-10T14:55:06.543Z,100690.28
2018-07-10T14:57:40.007Z,100691.32
2018-07-10T15:00:13.695Z,100697.66
2018-07-10T15:02:47.153Z,100699.79
2018-07-10T15:05:20.620Z,100695.84
2018-07-10T15:07:54.023Z,100702.08
2018-07-10T15:10:27.465Z,100706.47
2018-07-10T15:13:00.887Z,100703.05
2018-07-10T15:15:34.378Z,100702.59
2018-07-10T15:18:15.073Z,100699.64
2018-07-10T15:20:48.456Z,100696.22
2018-07-10T15:23:22.298Z,100704.36
2018-07-10T15:25:55.660Z,100701.08
2018-07-10T15:28:29.154Z,100695.84
2018-07-10T15:31:02.573Z,100691.03
2018-07-10T15:33:36.003Z,100693.98
2018-07-10T15:36:09.397Z,100697.42
2018-07-10T15:38:43.520Z,100689.42
2018-07-10T15:41:17.070Z,100696.16
2018-07-10T15:43:50.529Z,100692.98
2018-07-10T15:46:23.926Z,100691.52
2018-07-10T15:48:57.354Z,100690.92
2018-07-10T15:51:30.772Z,100690.46
2018-07-10T15:54:04.407Z,100688.30
2018-07-10T15:56:37.814Z,100696.09
2018-07-10T15:59:11.347Z,100694.87
2018-07-10T16:01:44.987Z,100698.84
2018-07-10T16:04:18.404Z,100694.09
2018-07-10T16:06:52.110Z,100693.04
2018-07-10T16:09:25.584Z,100695.78
2018-07-10T16:12:03.197Z,100695.94
2018-07-10T16:14:38.595Z,100697.14
2018-07-10T16:17:19.560Z,100697.45
2018-07-10T16:19:59.143Z,100693.36
2018-07-10T16:22:34.963Z,100700.14
2018-07-10T16:25:28.461Z,100692.01
2018-07-10T16:28:08.120Z,100690.92
2018-07-10T16:30:41.724Z,100691.22
2018-07-10T16:33:27.506Z,100701.00
2018-07-10T16:36:02.250Z,100700.02
2018-07-10T16:38:36.025Z,100701.50
2018-07-10T16:41:16.288Z,100702.27
2018-07-10T16:43:49.731Z,100697.58
2018-07-10T16:46:25.824Z,100700.27
2018-07-10T16:49:04.107Z,100702.34
2018-07-10T16:52:45.633Z,100706.23
2018-07-10T16:55:19.326Z,100704.77
2018-07-10T16:57:52.792Z,100708.67
2018-07-10T17:00:27.911Z,100717.06
2018-07-10T17:03:01.323Z,100717.84
2018-07-10T17:05:34.756Z,100717.73
2018-07-10T17:08:08.166Z,100713.59
2018-07-10T17:10:41.616Z,100720.53
2018-07-10T17:13:15.057Z,100713.50
2018-07-10T17:15:48.520Z,100721.36
2018-07-10T17:18:22.232Z,100725.09
2018-07-10T17:20:55.672Z,100721.37
2018-07-10T17:23:29.098Z,100724.15
2018-07-10T17:26:02.587Z,100724.21
2018-07-10T17:28:36.043Z,100726.06
2018-07-10T17:31:09.471Z,100724.98
2018-07-10T17:33:43.075Z,100726.83
2018-07-10T17:36:16.837Z,100732.07
2018-07-10T17:38:50.393Z,100734.75
2018-07-10T17:41:23.903Z,100729.89
2018-07-10T17:43:57.436Z,100739.98
2018-07-10T17:46:31.746Z,100740.14
2018-07-10T17:49:05.452Z,100735.58
2018-07-10T17:51:38.903Z,100730.09
2018-07-10T17:54:19.657Z,100735.82
2018-07-10T17:56:55.178Z,100736.89
2018-07-10T17:59:28.620Z,100743.97
2018-07-10T18:02:02.177Z,100745.48
2018-07-10T18:04:35.728Z,100743.96
2018-07-10T18:07:09.165Z,100744.88
2018-07-10T18:09:42.576Z,100742.08
2018-07-10T18:12:16.061Z,100743.20
2018-07-10T18:14:49.792Z,100749.35
2018-07-10T18:17:23.256Z,100750.59
2018-07-10T18:19:56.708Z,100751.33
2018-07-10T18:22:30.159Z,100750.04
2018-07-10T18:25:03.596Z,100753.08
2018-07-10T18:27:37.027Z,100754.84
2018-07-10T18:30:10.717Z,100753.45
2018-07-10T18:32:44.106Z,100759.09
2018-07-10T18:35:17.522Z,100748.38
2018-07-10T18:37:50.966Z,100755.20
2018-07-10T18:40:24.382Z,100755.67
2018-07-10T18:42:58.055Z,100754.23
2018-07-10T18:45:31.478Z,100755.61
2018-07-10T18:48:05.144Z,100756.91
2018-07-10T18:50:38.592Z,100762.13
2018-07-10T18:53:12.047Z,100764.81
2018-07-10T18:55:46.004Z,100771.73
2018-07-10T18:58:30.859Z,100771.47
2018-07-10T19:01:15.300Z,100766.39
2018-07-10T19:03:49.277Z,100771.66
2018-07-10T19:06:23.941Z,100769.13
2018-07-10T19:08:57.377Z,100774.52
2018-07-10T19:11:30.827Z,100775.41
2018-07-10T19:14:04.260Z,100775.59
2018-07-10T19:16:38.715Z,100780.81
2018-07-10T19:19:12.192Z,100781.42
2018-07-10T19:21:50.755Z,100782.80
2018-07-10T19:24:25.737Z,100784.98
2018-07-10T19:27:00.272Z,100792.81
2018-07-10T19:29:47.242Z,100793.33
2018-07-10T19:32:20.721Z,100792.73
2018-07-10T19:34:56.867Z,100800.38
2018-07-10T19:37:32.471Z,100804.02
2018-07-10T19:40:06.016Z,100801.34
2018-07-10T19:42:40.512Z,100798.55
2018-07-10T19:45:14.051Z,100799.52
2018-07-10T19:47:48.469Z,100790.78
2018-07-10T19:50:23.675Z,100792.48
2018-07-10T19:52:57.117Z,100792.97
2018-07-10T19:55:30.703Z,100792.99
2018-07-10T19:59:09.719Z,100787.02
2018-07-10T20:01:46.691Z,100781.67
2018-07-10T20:04:27.320Z,100780.67
2018-07-10T20:07:11.269Z,100781.77
2018-07-10T20:09:57.976Z,100779.98
2018-07-10T20:12:37.717Z,100776.87
2018-07-10T20:15:50.263Z,100778.31
2018-07-10T20:18:43.342Z,100782.78
2018-07-10T20:21:24.024Z,100787.43
2018-07-10T20:24:04.207Z,100794.20
2018-07-10T20:26:43.710Z,100781.59
2018-07-10T20:29:30.253Z,100786.05
2018-07-10T20:32:06.812Z,100791.84
2018-07-10T20:34:48.092Z,100792.17
2018-07-10T20:37:25.968Z,100788.54
2018-07-10T20:40:00.036Z,100787.19
2018-07-10T20:42:39.916Z,100792.95
2018-07-10T20:45:13.453Z,100796.66
2018-07-10T20:47:50.490Z,100800.27
2018-07-10T20:50:34.847Z,100798.26
2018-07-10T20:53:48.691Z,100790.77
2018-07-10T20:56:39.858Z,100797.42
2018-07-10T20:59:20.622Z,100791.24
2018-07-10T21:01:59.656Z,100792.87
2018-07-10T21:04:39.956Z,100796.43
2018-07-10T21:07:20.050Z,100795.36
2018-07-10T21:10:10.273Z,100804.73
2018-07-10T21:12:58.436Z,100806.89
2018-07-10T21:16:47.903Z,100803.14
2018-07-10T21:22:38.160Z,100800.67
2018-07-10T21:25:33.158Z,100800.86
2018-07-10T21:28:21.578Z,100801.06
2018-07-10T21:30:58.115Z,100804.27
2018-07-10T21:33:44.454Z,100806.52
2018-07-10T21:36:23.089Z,100809.23
2018-07-10T21:39:07.275Z,100806.69
2018-07-10T21:41:56.874Z,100805.19
2018-07-10T21:44:40.196Z,100811.20
2018-07-10T21:49:27.119Z,100808.34
2018-07-10T21:52:00.588Z,100811.02
2018-07-10T21:54:34.007Z,100815.53
2018-07-10T21:57:07.486Z,100822.02
2018-07-10T21:59:48.033Z,100820.84
2018-07-10T22:02:21.536Z,100825.59
2018-07-10T22:04:58.293Z,100824.31
2018-07-10T22:07:32.992Z,100826.87
2018-07-10T22:10:08.954Z,100821.88
2018-07-10T22:12:48.591Z,100821.64
2018-07-10T22:15:23.235Z,100827.27
2018-07-10T22:17:58.296Z,100817.09
2018-07-10T22:20:32.948Z,100812.94
2018-07-10T22:23:07.630Z,100820.30
2018-07-10T22:25:42.200Z,100816.98
2018-07-10T22:28:16.555Z,100823.03
2018-07-10T22:30:56.486Z,100826.11
2018-07-10T22:33:31.729Z,100826.56
2018-07-10T22:36:06.531Z,100826.27
2018-07-10T22:38:41.624Z,100826.36
2018-07-10T22:41:24.994Z,100823.41
2018-07-10T22:44:01.541Z,100815.70
2018-07-10T22:46:36.906Z,100815.73
2018-07-10T22:49:13.001Z,100809.36
2018-07-10T22:51:47.392Z,100814.21
2018-07-10T22:54:22.606Z,100805.80
2018-07-10T22:56:57.413Z,100806.30
2018-07-10T22:59:32.517Z,100804.28
2018-07-10T23:02:07.606Z,100808.16
2018-07-10T23:04:42.179Z,100805.59
2018-07-10T23:07:16.808Z,100794.58
2018-07-10T23:09:51.644Z,100799.77
2018-07-10T23:12:25.977Z,100805.36
2018-07-10T23:15:00.626Z,100808.34
2018-07-10T23:17:34.900Z,100793.44
2018-07-10T23:20:09.457Z,100800.31
2018-07-10T23:22:55.873Z,100798.97
2018-07-10T23:25:30.571Z,100801.05
2018-07-10T23:28:07.565Z,100796.24
2018-07-10T23:30:44.696Z,100791.91
2018-07-10T23:33:20.643Z,100791.08
2018-07-10T23:35:59.885Z,100789.34
2018-07-10T23:38:44.659Z,100789.28
2018-07-10T23:41:27.185Z,100787.13
2018-07-10T23:44:01.920Z,100782.83
2018-07-10T23:46:45.750Z,100787.06
2018-07-10T23:49:20.947Z,100789.64
2018-07-10T23:52:06.765Z,100788.70
2018-07-10T23:54:41.120Z,100777.92
2018-07-10T23:57:15.926Z,100774.06
2018-07-10T23:59:50.578Z,100772.30
